sensor_id;sensor_type;location;lat;lon;timestamp;temperature;humidity
12708;DHT22;6418;50.824;4.718;2022-12-29T00:01:28;11.00;99.90
12708;DHT22;6418;50.824;4.718;2022-12-29T00:03:55;11.10;99.90
12708;DHT22;6418;50.824;4.718;2022-12-29T00:06:22;11.10;99.90
12708;DHT22;6418;50.824;4.718;2022-12-29T00:08:49;11.10;99.90
12708;DHT22;6418;50.824;4.718;2022-12-29T00:11:19;11.10;99.90
12708;DHT22;6418;50.824;4.718;2022-12-29T00:13:47;11.00;99.90
12708;DHT22;6418;50.824;4.718;2022-12-29T00:16:32;11.10;99.90
12708;DHT22;6418;50.824;4.718;2022-12-29T00:18:59;11.10;99.90
12708;DHT22;6418;50.824;4.718;2022-12-29T00:21:26;11.10;99.90
12708;DHT22;6418;50.824;4.718;2022-12-29T00:24:13;11.10;99.90
12708;DHT22;6418;50.824;4.718;2022-12-29T00:27:11;11.10;99.90
12708;DHT22;6418;50.824;4.718;2022-12-29T00:29:56;11.20;99.90
12708;DHT22;6418;50.824;4.718;2022-12-29T00:32:40;11.20;99.90
12708;DHT22;6418;50.824;4.718;2022-12-29T00:35:27;11.20;99.90
12708;DHT22;6418;50.824;4.718;2022-12-29T00:37:55;11.20;99.90
12708;DHT22;6418;50.824;4.718;2022-12-29T00:40:41;11.20;99.90
12708;DHT22;6418;50.824;4.718;2022-12-29T00:43:26;11.20;99.90
12708;DHT22;6418;50.824;4.718;2022-12-29T00:46:11;11.20;99.90
12708;DHT22;6418;50.824;4.718;2022-12-29T00:48:38;11.10;99.90
12708;DHT22;6418;50.824;4.718;2022-12-29T00:51:22;11.10;99.90
12708;DHT22;6418;50.824;4.718;2022-12-29T00:53:49;11.20;99.90
12708;DHT22;6418;50.824;4.718;2022-12-29T00:56:16;11.20;99.90
12708;DHT22;6418;50.824;4.718;2022-12-29T00:58:44;11.20;99.90
12708;DHT22;6418;50.824;4.718;2022-12-29T01:01:11;11.20;99.90
12708;DHT22;6418;50.824;4.718;2022-12-29T01:03:38;11.20;99.90
12708;DHT22;6418;50.824;4.718;2022-12-29T01:06:07;11.20;99.90
12708;DHT22;6418;50.824;4.718;2022-12-29T01:08:34;11.20;99.90
12708;DHT22;6418;50.824;4.718;2022-12-29T01:11:03;11.20;99.90
12708;DHT22;6418;50.824;4.718;2022-12-29T01:13:30;11.30;99.90
12708;DHT22;6418;50.824;4.718;2022-12-29T01:15:58;11.30;99.90
12708;DHT22;6418;50.824;4.718;2022-12-29T01:18:25;11.30;99.90
12708;DHT22;6418;50.824;4.718;2022-12-29T01:20:58;11.30;99.90
12708;DHT22;6418;50.824;4.718;2022-12-29T01:23:25;11.30;99.90
12708;DHT22;6418;50.824;4.718;2022-12-29T01:25:52;11.30;99.90
12708;DHT22;6418;50.824;4.718;2022-12-29T01:28:19;11.30;99.90
12708;DHT22;6418;50.824;4.718;2022-12-29T01:30:46;11.20;99.90
12708;DHT22;6418;50.824;4.718;2022-12-29T01:33:14;11.30;99.90
12708;DHT22;6418;50.824;4.718;2022-12-29T01:35:41;11.20;99.90
12708;DHT22;6418;50.824;4.718;2022-12-29T01:38:08;11.20;99.90
12708;DHT22;6418;50.824;4.718;2022-12-29T01:40:43;11.10;99.90
12708;DHT22;6418;50.824;4.718;2022-12-29T01:43:12;11.10;99.90
12708;DHT22;6418;50.824;4.718;2022-12-29T01:45:43;11.10;99.90
12708;DHT22;6418;50.824;4.718;2022-12-29T01:48:13;11.10;99.90
12708;DHT22;6418;50.824;4.718;2022-12-29T01:50:45;11.00;99.90
12708;DHT22;6418;50.824;4.718;2022-12-29T01:53:17;11.10;99.90
12708;DHT22;6418;50.824;4.718;2022-12-29T01:55:48;11.00;99.90
12708;DHT22;6418;50.824;4.718;2022-12-29T01:58:18;10.90;99.90
12708;DHT22;6418;50.824;4.718;2022-12-29T02:00:47;10.90;99.90
12708;DHT22;6418;50.824;4.718;2022-12-29T02:03:16;10.90;99.90
12708;DHT22;6418;50.824;4.718;2022-12-29T02:05:48;10.90;99.90
12708;DHT22;6418;50.824;4.718;2022-12-29T02:08:18;10.90;99.90
12708;DHT22;6418;50.824;4.718;2022-12-29T02:10:46;10.80;99.90
12708;DHT22;6418;50.824;4.718;2022-12-29T02:13:15;10.80;99.90
12708;DHT22;6418;50.824;4.718;2022-12-29T02:15:51;10.80;99.90
12708;DHT22;6418;50.824;4.718;2022-12-29T02:18:30;10.70;99.90
12708;DHT22;6418;50.824;4.718;2022-12-29T02:24:37;10.70;99.90
12708;DHT22;6418;50.824;4.718;2022-12-29T02:27:29;10.70;99.90
12708;DHT22;6418;50.824;4.718;2022-12-29T02:30:30;10.70;99.90
12708;DHT22;6418;50.824;4.718;2022-12-29T02:33:02;10.70;99.90
12708;DHT22;6418;50.824;4.718;2022-12-29T02:35:35;10.70;99.90
12708;DHT22;6418;50.824;4.718;2022-12-29T02:38:12;10.70;99.90
12708;DHT22;6418;50.824;4.718;2022-12-29T02:40:45;10.70;99.90
12708;DHT22;6418;50.824;4.718;2022-12-29T02:43:23;10.70;99.90
12708;DHT22;6418;50.824;4.718;2022-12-29T02:45:56;10.70;99.90
12708;DHT22;6418;50.824;4.718;2022-12-29T02:48:28;10.70;99.90
12708;DHT22;6418;50.824;4.718;2022-12-29T02:51:00;10.60;99.90
12708;DHT22;6418;50.824;4.718;2022-12-29T02:53:29;10.70;99.90
12708;DHT22;6418;50.824;4.718;2022-12-29T02:56:14;10.80;99.90
12708;DHT22;6418;50.824;4.718;2022-12-29T02:58:41;10.70;99.90
12708;DHT22;6418;50.824;4.718;2022-12-29T03:01:29;10.70;99.90
12708;DHT22;6418;50.824;4.718;2022-12-29T03:04:20;10.70;99.90
12708;DHT22;6418;50.824;4.718;2022-12-29T03:06:58;10.70;99.90
12708;DHT22;6418;50.824;4.718;2022-12-29T03:09:35;10.70;99.90
12708;DHT22;6418;50.824;4.718;2022-12-29T03:12:09;10.70;99.90
12708;DHT22;6418;50.824;4.718;2022-12-29T03:14:48;10.70;99.90
12708;DHT22;6418;50.824;4.718;2022-12-29T03:17:43;10.70;99.90
12708;DHT22;6418;50.824;4.718;2022-12-29T03:20:16;10.60;99.90
12708;DHT22;6418;50.824;4.718;2022-12-29T03:22:47;10.60;99.90
12708;DHT22;6418;50.824;4.718;2022-12-29T03:25:17;10.70;99.90
12708;DHT22;6418;50.824;4.718;2022-12-29T03:27:49;10.60;99.90
12708;DHT22;6418;50.824;4.718;2022-12-29T03:30:17;10.70;99.90
12708;DHT22;6418;50.824;4.718;2022-12-29T03:32:49;10.60;99.90
12708;DHT22;6418;50.824;4.718;2022-12-29T03:35:18;10.50;99.90
12708;DHT22;6418;50.824;4.718;2022-12-29T03:37:55;10.60;99.90
12708;DHT22;6418;50.824;4.718;2022-12-29T03:40:25;10.60;99.90
12708;DHT22;6418;50.824;4.718;2022-12-29T03:42:53;10.60;99.90
12708;DHT22;6418;50.824;4.718;2022-12-29T03:45:21;10.60;99.90
12708;DHT22;6418;50.824;4.718;2022-12-29T03:47:49;10.50;99.90
12708;DHT22;6418;50.824;4.718;2022-12-29T03:50:17;10.50;99.90
12708;DHT22;6418;50.824;4.718;2022-12-29T03:52:43;10.50;99.90
12708;DHT22;6418;50.824;4.718;2022-12-29T03:55:10;10.40;99.90
12708;DHT22;6418;50.824;4.718;2022-12-29T03:57:37;10.40;99.90
12708;DHT22;6418;50.824;4.718;2022-12-29T04:00:05;10.40;99.90
12708;DHT22;6418;50.824;4.718;2022-12-29T04:02:33;10.30;99.90
12708;DHT22;6418;50.824;4.718;2022-12-29T04:05:01;10.30;99.90
12708;DHT22;6418;50.824;4.718;2022-12-29T04:07:28;10.30;99.90
12708;DHT22;6418;50.824;4.718;2022-12-29T04:09:55;10.30;99.90
12708;DHT22;6418;50.824;4.718;2022-12-29T04:12:21;10.20;99.90
12708;DHT22;6418;50.824;4.718;2022-12-29T04:14:48;10.20;99.90
12708;DHT22;6418;50.824;4.718;2022-12-29T04:17:15;10.30;99.90
12708;DHT22;6418;50.824;4.718;2022-12-29T04:19:42;10.20;99.90
12708;DHT22;6418;50.824;4.718;2022-12-29T04:22:10;10.10;99.90
12708;DHT22;6418;50.824;4.718;2022-12-29T04:24:38;10.10;99.90
12708;DHT22;6418;50.824;4.718;2022-12-29T04:27:05;10.10;99.90
12708;DHT22;6418;50.824;4.718;2022-12-29T04:29:31;10.10;99.90
12708;DHT22;6418;50.824;4.718;2022-12-29T04:31:58;10.10;99.90
12708;DHT22;6418;50.824;4.718;2022-12-29T04:34:25;10.10;99.90
12708;DHT22;6418;50.824;4.718;2022-12-29T04:36:52;10.00;99.90
12708;DHT22;6418;50.824;4.718;2022-12-29T04:39:20;10.00;99.90
12708;DHT22;6418;50.824;4.718;2022-12-29T04:41:47;10.00;99.90
12708;DHT22;6418;50.824;4.718;2022-12-29T04:44:14;10.00;99.90
12708;DHT22;6418;50.824;4.718;2022-12-29T04:46:41;10.00;99.90
12708;DHT22;6418;50.824;4.718;2022-12-29T04:49:08;10.00;99.90
12708;DHT22;6418;50.824;4.718;2022-12-29T04:51:35;10.00;99.90
12708;DHT22;6418;50.824;4.718;2022-12-29T04:54:02;9.90;99.90
12708;DHT22;6418;50.824;4.718;2022-12-29T04:56:30;9.90;99.90
12708;DHT22;6418;50.824;4.718;2022-12-29T04:58:57;9.90;99.90
12708;DHT22;6418;50.824;4.718;2022-12-29T05:01:24;9.90;99.90
12708;DHT22;6418;50.824;4.718;2022-12-29T05:03:51;10.00;99.90
12708;DHT22;6418;50.824;4.718;2022-12-29T05:06:18;10.00;99.90
12708;DHT22;6418;50.824;4.718;2022-12-29T05:08:45;10.00;99.90
12708;DHT22;6418;50.824;4.718;2022-12-29T05:11:12;10.00;99.90
12708;DHT22;6418;50.824;4.718;2022-12-29T05:13:41;10.10;99.90
12708;DHT22;6418;50.824;4.718;2022-12-29T05:16:07;10.10;99.90
12708;DHT22;6418;50.824;4.718;2022-12-29T05:18:34;10.10;99.90
12708;DHT22;6418;50.824;4.718;2022-12-29T05:21:01;10.10;99.90
12708;DHT22;6418;50.824;4.718;2022-12-29T05:23:28;10.10;99.90
12708;DHT22;6418;50.824;4.718;2022-12-29T05:25:55;10.20;99.90
12708;DHT22;6418;50.824;4.718;2022-12-29T05:28:22;10.20;99.90
12708;DHT22;6418;50.824;4.718;2022-12-29T05:30:50;10.20;99.90
12708;DHT22;6418;50.824;4.718;2022-12-29T05:33:18;10.20;99.90
12708;DHT22;6418;50.824;4.718;2022-12-29T05:35:45;10.20;99.90
12708;DHT22;6418;50.824;4.718;2022-12-29T05:38:12;10.20;99.90
12708;DHT22;6418;50.824;4.718;2022-12-29T05:40:39;10.20;99.90
12708;DHT22;6418;50.824;4.718;2022-12-29T05:43:06;10.20;99.90
12708;DHT22;6418;50.824;4.718;2022-12-29T05:45:33;10.10;99.90
12708;DHT22;6418;50.824;4.718;2022-12-29T05:48:01;10.10;99.90
12708;DHT22;6418;50.824;4.718;2022-12-29T05:50:28;10.20;99.90
12708;DHT22;6418;50.824;4.718;2022-12-29T05:52:55;10.20;99.90
12708;DHT22;6418;50.824;4.718;2022-12-29T05:55:22;10.20;99.90
12708;DHT22;6418;50.824;4.718;2022-12-29T05:57:49;10.20;99.90
12708;DHT22;6418;50.824;4.718;2022-12-29T06:00:16;10.30;99.90
12708;DHT22;6418;50.824;4.718;2022-12-29T06:02:43;10.20;99.90
12708;DHT22;6418;50.824;4.718;2022-12-29T06:05:11;10.20;99.90
12708;DHT22;6418;50.824;4.718;2022-12-29T06:07:38;10.10;99.90
12708;DHT22;6418;50.824;4.718;2022-12-29T06:10:05;10.20;99.90
12708;DHT22;6418;50.824;4.718;2022-12-29T06:12:32;10.20;99.90
12708;DHT22;6418;50.824;4.718;2022-12-29T06:14:59;10.20;99.90
12708;DHT22;6418;50.824;4.718;2022-12-29T06:17:26;10.20;99.90
12708;DHT22;6418;50.824;4.718;2022-12-29T06:19:53;10.20;99.90
12708;DHT22;6418;50.824;4.718;2022-12-29T06:22:21;10.10;99.90
12708;DHT22;6418;50.824;4.718;2022-12-29T06:24:48;10.20;99.90
12708;DHT22;6418;50.824;4.718;2022-12-29T06:27:15;10.10;99.90
12708;DHT22;6418;50.824;4.718;2022-12-29T06:29:42;10.20;99.90
12708;DHT22;6418;50.824;4.718;2022-12-29T06:32:09;10.50;99.90
12708;DHT22;6418;50.824;4.718;2022-12-29T06:34:36;10.20;99.90
12708;DHT22;6418;50.824;4.718;2022-12-29T06:37:03;10.20;99.90
12708;DHT22;6418;50.824;4.718;2022-12-29T06:39:31;10.60;99.90
12708;DHT22;6418;50.824;4.718;2022-12-29T06:41:58;10.30;99.90
12708;DHT22;6418;50.824;4.718;2022-12-29T06:44:24;10.30;99.90
12708;DHT22;6418;50.824;4.718;2022-12-29T06:46:51;10.20;99.90
12708;DHT22;6418;50.824;4.718;2022-12-29T06:49:18;10.20;99.90
12708;DHT22;6418;50.824;4.718;2022-12-29T06:51:45;10.30;99.90
12708;DHT22;6418;50.824;4.718;2022-12-29T06:54:12;10.40;99.90
12708;DHT22;6418;50.824;4.718;2022-12-29T06:56:40;10.30;99.90
12708;DHT22;6418;50.824;4.718;2022-12-29T06:59:08;10.30;99.90
12708;DHT22;6418;50.824;4.718;2022-12-29T07:01:35;10.30;99.90
12708;DHT22;6418;50.824;4.718;2022-12-29T07:04:02;10.30;99.90
12708;DHT22;6418;50.824;4.718;2022-12-29T07:06:29;10.30;99.90
12708;DHT22;6418;50.824;4.718;2022-12-29T07:08:56;11.40;99.90
12708;DHT22;6418;50.824;4.718;2022-12-29T07:11:23;10.30;99.90
12708;DHT22;6418;50.824;4.718;2022-12-29T07:13:52;10.30;99.90
12708;DHT22;6418;50.824;4.718;2022-12-29T07:16:18;10.30;99.90
12708;DHT22;6418;50.824;4.718;2022-12-29T07:18:45;10.20;99.90
12708;DHT22;6418;50.824;4.718;2022-12-29T07:21:12;10.30;99.90
12708;DHT22;6418;50.824;4.718;2022-12-29T07:23:39;10.30;99.90
12708;DHT22;6418;50.824;4.718;2022-12-29T07:26:08;10.30;99.90
12708;DHT22;6418;50.824;4.718;2022-12-29T07:28:36;10.20;99.90
12708;DHT22;6418;50.824;4.718;2022-12-29T07:31:05;10.30;99.90
12708;DHT22;6418;50.824;4.718;2022-12-29T07:33:32;10.20;99.90
12708;DHT22;6418;50.824;4.718;2022-12-29T07:35:59;10.20;99.90
12708;DHT22;6418;50.824;4.718;2022-12-29T07:38:26;10.20;99.90
12708;DHT22;6418;50.824;4.718;2022-12-29T07:40:56;10.20;99.90
12708;DHT22;6418;50.824;4.718;2022-12-29T07:43:23;10.20;99.90
12708;DHT22;6418;50.824;4.718;2022-12-29T07:45:50;10.20;99.90
12708;DHT22;6418;50.824;4.718;2022-12-29T07:48:18;10.20;99.90
12708;DHT22;6418;50.824;4.718;2022-12-29T07:50:45;10.10;99.90
12708;DHT22;6418;50.824;4.718;2022-12-29T07:53:12;10.10;99.90
12708;DHT22;6418;50.824;4.718;2022-12-29T07:55:39;10.10;99.90
12708;DHT22;6418;50.824;4.718;2022-12-29T07:58:06;10.10;99.90
12708;DHT22;6418;50.824;4.718;2022-12-29T08:00:33;10.20;99.90
12708;DHT22;6418;50.824;4.718;2022-12-29T08:03:00;10.10;99.90
12708;DHT22;6418;50.824;4.718;2022-12-29T08:05:30;10.10;99.90
12708;DHT22;6418;50.824;4.718;2022-12-29T08:07:56;10.20;99.90
12708;DHT22;6418;50.824;4.718;2022-12-29T08:10:24;10.20;99.90
12708;DHT22;6418;50.824;4.718;2022-12-29T08:12:50;10.10;99.90
12708;DHT22;6418;50.824;4.718;2022-12-29T08:15:17;10.10;99.90
12708;DHT22;6418;50.824;4.718;2022-12-29T08:17:44;10.10;99.90
12708;DHT22;6418;50.824;4.718;2022-12-29T08:20:11;10.10;99.90
12708;DHT22;6418;50.824;4.718;2022-12-29T08:22:40;10.10;99.90
12708;DHT22;6418;50.824;4.718;2022-12-29T08:25:07;10.10;99.90
12708;DHT22;6418;50.824;4.718;2022-12-29T08:27:34;10.10;99.90
12708;DHT22;6418;50.824;4.718;2022-12-29T08:30:01;10.00;99.90
12708;DHT22;6418;50.824;4.718;2022-12-29T08:32:28;10.10;99.90
12708;DHT22;6418;50.824;4.718;2022-12-29T08:34:55;10.00;99.90
12708;DHT22;6418;50.824;4.718;2022-12-29T08:37:22;10.10;99.90
12708;DHT22;6418;50.824;4.718;2022-12-29T08:39:51;10.00;99.90
12708;DHT22;6418;50.824;4.718;2022-12-29T08:42:18;10.00;99.90
12708;DHT22;6418;50.824;4.718;2022-12-29T08:44:44;10.10;99.90
12708;DHT22;6418;50.824;4.718;2022-12-29T08:47:11;10.00;99.90
12708;DHT22;6418;50.824;4.718;2022-12-29T08:49:38;10.00;99.90
12708;DHT22;6418;50.824;4.718;2022-12-29T08:52:05;10.00;99.90
12708;DHT22;6418;50.824;4.718;2022-12-29T08:54:32;10.10;99.90
12708;DHT22;6418;50.824;4.718;2022-12-29T08:57:00;10.00;99.90
12708;DHT22;6418;50.824;4.718;2022-12-29T08:59:27;10.00;99.90
12708;DHT22;6418;50.824;4.718;2022-12-29T09:01:54;10.00;99.90
12708;DHT22;6418;50.824;4.718;2022-12-29T09:04:21;10.10;99.90
12708;DHT22;6418;50.824;4.718;2022-12-29T09:06:49;10.10;99.90
12708;DHT22;6418;50.824;4.718;2022-12-29T09:09:16;10.00;99.90
12708;DHT22;6418;50.824;4.718;2022-12-29T09:11:44;10.10;99.90
12708;DHT22;6418;50.824;4.718;2022-12-29T09:14:12;10.00;99.90
12708;DHT22;6418;50.824;4.718;2022-12-29T09:16:40;10.00;99.90
12708;DHT22;6418;50.824;4.718;2022-12-29T09:19:24;10.00;99.90
12708;DHT22;6418;50.824;4.718;2022-12-29T09:21:51;10.10;99.90
12708;DHT22;6418;50.824;4.718;2022-12-29T09:24:18;10.00;99.90
12708;DHT22;6418;50.824;4.718;2022-12-29T09:26:45;10.10;99.90
12708;DHT22;6418;50.824;4.718;2022-12-29T09:29:13;9.90;99.90
12708;DHT22;6418;50.824;4.718;2022-12-29T09:31:40;10.00;99.90
12708;DHT22;6418;50.824;4.718;2022-12-29T09:34:07;10.10;99.90
12708;DHT22;6418;50.824;4.718;2022-12-29T09:36:34;10.00;99.90
12708;DHT22;6418;50.824;4.718;2022-12-29T09:39:01;10.00;99.90
12708;DHT22;6418;50.824;4.718;2022-12-29T09:41:34;10.10;99.90
12708;DHT22;6418;50.824;4.718;2022-12-29T09:44:08;10.10;99.90
12708;DHT22;6418;50.824;4.718;2022-12-29T09:46:43;10.10;99.90
12708;DHT22;6418;50.824;4.718;2022-12-29T09:49:19;10.10;99.90
12708;DHT22;6418;50.824;4.718;2022-12-29T09:51:51;10.10;99.90
12708;DHT22;6418;50.824;4.718;2022-12-29T09:54:39;10.00;99.90
12708;DHT22;6418;50.824;4.718;2022-12-29T09:57:15;10.10;99.90
12708;DHT22;6418;50.824;4.718;2022-12-29T09:59:44;10.10;99.90
12708;DHT22;6418;50.824;4.718;2022-12-29T10:02:28;10.10;99.90
12708;DHT22;6418;50.824;4.718;2022-12-29T10:04:56;10.20;99.90
12708;DHT22;6418;50.824;4.718;2022-12-29T10:07:31;10.10;99.90
12708;DHT22;6418;50.824;4.718;2022-12-29T10:10:12;10.20;99.90
12708;DHT22;6418;50.824;4.718;2022-12-29T10:12:53;10.40;99.90
12708;DHT22;6418;50.824;4.718;2022-12-29T10:15:35;10.20;99.90
12708;DHT22;6418;50.824;4.718;2022-12-29T10:18:15;10.20;99.90
12708;DHT22;6418;50.824;4.718;2022-12-29T10:20:49;10.20;99.90
12708;DHT22;6418;50.824;4.718;2022-12-29T10:23:26;10.20;99.90
12708;DHT22;6418;50.824;4.718;2022-12-29T10:25:55;10.20;99.90
12708;DHT22;6418;50.824;4.718;2022-12-29T10:28:24;10.30;99.90
12708;DHT22;6418;50.824;4.718;2022-12-29T10:30:56;10.30;99.90
12708;DHT22;6418;50.824;4.718;2022-12-29T10:33:32;10.50;99.90
12708;DHT22;6418;50.824;4.718;2022-12-29T10:36:04;10.30;99.90
12708;DHT22;6418;50.824;4.718;2022-12-29T10:38:42;10.40;99.90
12708;DHT22;6418;50.824;4.718;2022-12-29T10:41:15;10.40;99.90
12708;DHT22;6418;50.824;4.718;2022-12-29T10:43:46;10.50;99.90
12708;DHT22;6418;50.824;4.718;2022-12-29T10:46:17;10.50;99.90
12708;DHT22;6418;50.824;4.718;2022-12-29T10:48:46;10.50;99.90
12708;DHT22;6418;50.824;4.718;2022-12-29T10:51:20;10.60;99.90
12708;DHT22;6418;50.824;4.718;2022-12-29T10:53:52;10.60;99.90
12708;DHT22;6418;50.824;4.718;2022-12-29T10:56:29;10.60;99.90
12708;DHT22;6418;50.824;4.718;2022-12-29T10:58:59;10.60;99.90
12708;DHT22;6418;50.824;4.718;2022-12-29T11:01:32;10.70;99.90
12708;DHT22;6418;50.824;4.718;2022-12-29T11:04:08;10.70;99.90
12708;DHT22;6418;50.824;4.718;2022-12-29T11:06:43;10.70;99.90
12708;DHT22;6418;50.824;4.718;2022-12-29T11:09:14;10.70;99.90
12708;DHT22;6418;50.824;4.718;2022-12-29T11:11:42;10.70;99.90
12708;DHT22;6418;50.824;4.718;2022-12-29T11:14:13;10.80;99.90
12708;DHT22;6418;50.824;4.718;2022-12-29T11:16:41;10.80;99.90
12708;DHT22;6418;50.824;4.718;2022-12-29T11:19:21;10.70;99.90
12708;DHT22;6418;50.824;4.718;2022-12-29T11:21:49;10.70;99.90
12708;DHT22;6418;50.824;4.718;2022-12-29T11:24:22;10.80;99.90
12708;DHT22;6418;50.824;4.718;2022-12-29T11:26:51;10.80;99.90
12708;DHT22;6418;50.824;4.718;2022-12-29T11:29:24;10.70;99.90
12708;DHT22;6418;50.824;4.718;2022-12-29T11:31:53;10.70;99.90
12708;DHT22;6418;50.824;4.718;2022-12-29T11:34:24;10.70;99.90
12708;DHT22;6418;50.824;4.718;2022-12-29T11:36:54;10.70;99.90
12708;DHT22;6418;50.824;4.718;2022-12-29T11:39:37;10.70;99.90
12708;DHT22;6418;50.824;4.718;2022-12-29T11:42:10;10.70;99.90
12708;DHT22;6418;50.824;4.718;2022-12-29T11:44:43;10.70;99.90
12708;DHT22;6418;50.824;4.718;2022-12-29T11:47:19;10.70;99.90
12708;DHT22;6418;50.824;4.718;2022-12-29T11:49:51;10.70;99.90
12708;DHT22;6418;50.824;4.718;2022-12-29T11:52:22;10.60;99.90
12708;DHT22;6418;50.824;4.718;2022-12-29T11:54:50;10.70;99.90
12708;DHT22;6418;50.824;4.718;2022-12-29T11:57:19;10.70;99.90
12708;DHT22;6418;50.824;4.718;2022-12-29T11:59:50;10.70;99.90
12708;DHT22;6418;50.824;4.718;2022-12-29T12:02:36;10.70;99.90
12708;DHT22;6418;50.824;4.718;2022-12-29T12:05:22;10.60;99.90
12708;DHT22;6418;50.824;4.718;2022-12-29T12:07:55;10.60;99.90
12708;DHT22;6418;50.824;4.718;2022-12-29T12:10:26;10.50;99.90
12708;DHT22;6418;50.824;4.718;2022-12-29T12:13:02;10.50;99.90
12708;DHT22;6418;50.824;4.718;2022-12-29T12:15:35;10.60;99.90
12708;DHT22;6418;50.824;4.718;2022-12-29T12:18:08;10.60;99.90
12708;DHT22;6418;50.824;4.718;2022-12-29T12:20:44;10.60;99.90
12708;DHT22;6418;50.824;4.718;2022-12-29T12:23:26;10.60;99.90
12708;DHT22;6418;50.824;4.718;2022-12-29T12:25:59;10.60;99.90
12708;DHT22;6418;50.824;4.718;2022-12-29T12:28:34;10.60;99.90
12708;DHT22;6418;50.824;4.718;2022-12-29T12:31:06;10.50;99.90
12708;DHT22;6418;50.824;4.718;2022-12-29T12:33:42;10.50;99.90
12708;DHT22;6418;50.824;4.718;2022-12-29T12:36:34;10.50;99.90
12708;DHT22;6418;50.824;4.718;2022-12-29T12:39:11;10.50;99.90
12708;DHT22;6418;50.824;4.718;2022-12-29T12:41:48;10.60;99.90
12708;DHT22;6418;50.824;4.718;2022-12-29T12:44:24;10.60;99.90
12708;DHT22;6418;50.824;4.718;2022-12-29T12:47:10;10.60;99.90
12708;DHT22;6418;50.824;4.718;2022-12-29T12:50:08;10.60;99.90
12708;DHT22;6418;50.824;4.718;2022-12-29T12:52:52;10.50;99.90
12708;DHT22;6418;50.824;4.718;2022-12-29T12:55:34;10.40;99.90
12708;DHT22;6418;50.824;4.718;2022-12-29T12:58:09;10.50;99.90
12708;DHT22;6418;50.824;4.718;2022-12-29T13:00:48;10.60;99.90
12708;DHT22;6418;50.824;4.718;2022-12-29T13:03:24;10.60;99.90
12708;DHT22;6418;50.824;4.718;2022-12-29T13:06:07;10.60;99.90
12708;DHT22;6418;50.824;4.718;2022-12-29T13:09:11;10.60;99.90
12708;DHT22;6418;50.824;4.718;2022-12-29T13:11:51;10.60;99.90
12708;DHT22;6418;50.824;4.718;2022-12-29T13:14:33;10.60;99.90
12708;DHT22;6418;50.824;4.718;2022-12-29T13:17:08;10.60;99.90
12708;DHT22;6418;50.824;4.718;2022-12-29T13:19:40;10.60;99.90
12708;DHT22;6418;50.824;4.718;2022-12-29T13:22:11;10.60;99.90
12708;DHT22;6418;50.824;4.718;2022-12-29T13:24:50;10.60;99.90
12708;DHT22;6418;50.824;4.718;2022-12-29T13:27:24;10.60;99.90
12708;DHT22;6418;50.824;4.718;2022-12-29T13:30:00;10.70;99.90
12708;DHT22;6418;50.824;4.718;2022-12-29T13:32:37;10.70;99.90
12708;DHT22;6418;50.824;4.718;2022-12-29T13:35:20;10.60;99.90
12708;DHT22;6418;50.824;4.718;2022-12-29T13:37:55;10.60;99.90
12708;DHT22;6418;50.824;4.718;2022-12-29T13:40:28;10.50;99.90
12708;DHT22;6418;50.824;4.718;2022-12-29T13:43:00;10.50;99.90
12708;DHT22;6418;50.824;4.718;2022-12-29T13:45:31;10.40;99.90
12708;DHT22;6418;50.824;4.718;2022-12-29T13:48:05;10.40;99.90
12708;DHT22;6418;50.824;4.718;2022-12-29T13:50:36;10.40;99.90
12708;DHT22;6418;50.824;4.718;2022-12-29T13:53:14;10.30;99.90
12708;DHT22;6418;50.824;4.718;2022-12-29T13:55:51;10.10;99.90
12708;DHT22;6418;50.824;4.718;2022-12-29T13:58:26;10.20;99.90
12708;DHT22;6418;50.824;4.718;2022-12-29T14:00:58;10.10;99.90
12708;DHT22;6418;50.824;4.718;2022-12-29T14:03:46;10.10;99.90
12708;DHT22;6418;50.824;4.718;2022-12-29T14:06:19;10.00;99.90
12708;DHT22;6418;50.824;4.718;2022-12-29T14:08:46;9.90;99.90
12708;DHT22;6418;50.824;4.718;2022-12-29T14:11:17;9.90;99.90
12708;DHT22;6418;50.824;4.718;2022-12-29T14:13:46;9.70;99.90
12708;DHT22;6418;50.824;4.718;2022-12-29T14:16:28;9.70;99.90
12708;DHT22;6418;50.824;4.718;2022-12-29T14:19:03;9.70;99.90
12708;DHT22;6418;50.824;4.718;2022-12-29T14:21:31;9.60;99.90
12708;DHT22;6418;50.824;4.718;2022-12-29T14:24:32;9.60;99.90
12708;DHT22;6418;50.824;4.718;2022-12-29T14:33:13;9.40;99.90
12708;DHT22;6418;50.824;4.718;2022-12-29T14:35:43;9.40;99.90
12708;DHT22;6418;50.824;4.718;2022-12-29T14:38:17;9.40;99.90
12708;DHT22;6418;50.824;4.718;2022-12-29T14:40:45;9.40;99.90
12708;DHT22;6418;50.824;4.718;2022-12-29T14:43:14;9.40;99.90
12708;DHT22;6418;50.824;4.718;2022-12-29T14:45:52;9.40;99.90
12708;DHT22;6418;50.824;4.718;2022-12-29T14:48:37;9.40;99.90
12708;DHT22;6418;50.824;4.718;2022-12-29T14:51:27;9.40;99.90
12708;DHT22;6418;50.824;4.718;2022-12-29T14:53:55;9.40;99.90
12708;DHT22;6418;50.824;4.718;2022-12-29T14:56:26;9.40;99.90
12708;DHT22;6418;50.824;4.718;2022-12-29T14:58:54;9.40;99.90
12708;DHT22;6418;50.824;4.718;2022-12-29T15:01:28;9.40;99.90
12708;DHT22;6418;50.824;4.718;2022-12-29T15:04:03;9.40;99.90
12708;DHT22;6418;50.824;4.718;2022-12-29T15:06:31;9.40;99.90
12708;DHT22;6418;50.824;4.718;2022-12-29T15:09:06;9.30;99.90
12708;DHT22;6418;50.824;4.718;2022-12-29T15:11:47;9.40;99.90
12708;DHT22;6418;50.824;4.718;2022-12-29T15:14:32;9.40;99.90
12708;DHT22;6418;50.824;4.718;2022-12-29T15:17:08;9.40;99.90
12708;DHT22;6418;50.824;4.718;2022-12-29T15:19:36;9.30;99.90
12708;DHT22;6418;50.824;4.718;2022-12-29T15:22:03;9.30;99.90
12708;DHT22;6418;50.824;4.718;2022-12-29T15:24:30;9.30;99.90
12708;DHT22;6418;50.824;4.718;2022-12-29T15:26:57;9.30;99.90
12708;DHT22;6418;50.824;4.718;2022-12-29T15:29:35;9.20;99.90
12708;DHT22;6418;50.824;4.718;2022-12-29T15:32:17;9.30;99.90
12708;DHT22;6418;50.824;4.718;2022-12-29T15:34:46;9.30;99.90
12708;DHT22;6418;50.824;4.718;2022-12-29T15:37:22;9.30;99.90
12708;DHT22;6418;50.824;4.718;2022-12-29T15:39:49;9.30;99.90
12708;DHT22;6418;50.824;4.718;2022-12-29T15:42:38;9.30;99.90
12708;DHT22;6418;50.824;4.718;2022-12-29T15:45:11;9.20;99.90
12708;DHT22;6418;50.824;4.718;2022-12-29T15:47:42;9.10;99.90
12708;DHT22;6418;50.824;4.718;2022-12-29T15:50:20;9.10;99.90
12708;DHT22;6418;50.824;4.718;2022-12-29T15:52:48;9.00;99.90
12708;DHT22;6418;50.824;4.718;2022-12-29T15:55:21;8.90;99.90
12708;DHT22;6418;50.824;4.718;2022-12-29T15:57:56;8.90;99.90
12708;DHT22;6418;50.824;4.718;2022-12-29T16:00:25;8.90;99.90
12708;DHT22;6418;50.824;4.718;2022-12-29T16:02:54;8.80;99.90
12708;DHT22;6418;50.824;4.718;2022-12-29T16:05:22;8.80;99.90
12708;DHT22;6418;50.824;4.718;2022-12-29T16:07:53;8.70;99.90
12708;DHT22;6418;50.824;4.718;2022-12-29T16:10:30;8.80;99.90
12708;DHT22;6418;50.824;4.718;2022-12-29T16:13:04;8.60;99.90
12708;DHT22;6418;50.824;4.718;2022-12-29T16:15:32;8.60;99.90
12708;DHT22;6418;50.824;4.718;2022-12-29T16:18:00;8.50;99.90
12708;DHT22;6418;50.824;4.718;2022-12-29T16:20:37;8.50;99.90
12708;DHT22;6418;50.824;4.718;2022-12-29T16:23:05;8.40;99.90
12708;DHT22;6418;50.824;4.718;2022-12-29T16:25:42;9.20;99.90